Time;durP1;ratioP1;P1;durP2;ratioP2;P2;SDS_P1;SDS_P2;PMS_P1;PMS_P2;Temp;Humidity;BMP_temperature;BMP_pressure;BME280_temperature;BME280_humidity;BME280_pressure;Samples;Min_cycle;Max_cycle;Signal;HPM_P1;HPM_P2
2023/05/07 00:01:06;;;;;;;;;;;15.40;61.20;;;;;;5035194;28;81326;-37
2023/05/07 00:03:32;;;;;;;;;;;15.40;61.10;;;;;;5036846;28;83247;-37
2023/05/07 00:05:57;;;;;;;;;;;15.40;61.20;;;;;;5035174;28;82769;-37
2023/05/07 00:08:23;;;;;;;;;;;15.40;61.30;;;;;;5035615;28;82958;-36
2023/05/07 00:10:49;;;;;;;;;;;15.40;61.20;;;;;;5037670;28;83523;-40
2023/05/07 00:13:14;;;;;;;;;;;15.40;61.20;;;;;;5034548;28;83150;-37
2023/05/07 00:15:40;;;;;;;;;;;15.30;61.20;;;;;;5030855;28;82323;-38
2023/05/07 00:18:05;;;;;;;;;;;15.30;61.20;;;;;;5040153;28;82331;-37
2023/05/07 00:20:31;;;;;;;;;;;15.30;61.30;;;;;;5035938;28;82068;-39
2023/05/07 00:22:56;;;;;;;;;;;15.30;61.30;;;;;;5036274;28;82330;-38
2023/05/07 00:25:22;;;;;;;;;;;15.30;61.20;;;;;;5036120;28;82639;-37
2023/05/07 00:27:47;;;;;;;;;;;15.30;61.20;;;;;;5034714;28;82075;-36
2023/05/07 00:30:13;;;;;;;;;;;15.30;61.20;;;;;;5037602;28;83793;-39
2023/05/07 00:32:39;;;;;;;;;;;15.30;61.30;;;;;;5033806;28;83825;-39
2023/05/07 00:35:05;;;;;;;;;;;15.30;61.20;;;;;;5038352;28;81951;-39
2023/05/07 00:37:30;;;;;;;;;;;15.20;61.20;;;;;;5038400;28;82399;-39
2023/05/07 00:39:56;;;;;;;;;;;15.20;61.30;;;;;;5036342;28;82237;-39
2023/05/07 00:42:22;;;;;;;;;;;15.20;61.30;;;;;;5034943;27;81955;-36
2023/05/07 00:44:47;;;;;;;;;;;15.20;61.40;;;;;;5037261;28;84373;-38
2023/05/07 00:47:13;;;;;;;;;;;15.20;61.30;;;;;;5034095;28;82208;-38
2023/05/07 00:49:40;;;;;;;;;;;15.10;61.30;;;;;;5037250;28;82476;-37
2023/05/07 00:52:07;;;;;;;;;;;15.10;61.30;;;;;;5035448;28;84153;-39
2023/05/07 00:54:33;;;;;;;;;;;15.10;61.30;;;;;;5034851;28;82101;-37
2023/05/07 00:56:59;;;;;;;;;;;15.10;61.30;;;;;;5036888;28;83037;-37
2023/05/07 00:59:24;;;;;;;;;;;15.10;62.00;;;;;;5036610;28;83065;-36
2023/05/07 01:01:50;;;;;;;;;;;15.10;61.40;;;;;;5036699;28;82893;-39
2023/05/07 01:04:15;;;;;;;;;;;15.10;61.30;;;;;;5034607;28;82981;-36
2023/05/07 01:06:41;;;;;;;;;;;15.00;61.30;;;;;;5035669;28;82584;-38
2023/05/07 01:09:07;;;;;;;;;;;15.00;61.40;;;;;;5036454;28;83307;-39
2023/05/07 01:11:32;;;;;;;;;;;15.00;61.30;;;;;;5034314;28;83014;-39
2023/05/07 01:13:59;;;;;;;;;;;15.00;61.40;;;;;;5037562;28;81350;-37
2023/05/07 01:16:25;;;;;;;;;;;15.00;61.30;;;;;;5034221;28;81768;-36
2023/05/07 01:18:50;;;;;;;;;;;15.00;61.40;;;;;;5035970;28;83016;-37
2023/05/07 01:21:17;;;;;;;;;;;15.00;61.40;;;;;;5037777;28;83041;-37
2023/05/07 01:23:43;;;;;;;;;;;14.90;61.30;;;;;;5034673;28;82319;-40
2023/05/07 01:26:09;;;;;;;;;;;14.90;61.40;;;;;;5037020;28;82183;-39
2023/05/07 01:28:34;;;;;;;;;;;14.90;61.40;;;;;;5033198;27;82975;-39
2023/05/07 01:31:04;;;;;;;;;;;14.90;61.30;;;;;;5036353;28;84339;-39
2023/05/07 01:33:31;;;;;;;;;;;14.90;61.40;;;;;;5035128;28;82266;-37
2023/05/07 01:35:58;;;;;;;;;;;14.80;61.30;;;;;;5034589;27;83924;-36
2023/05/07 01:38:23;;;;;;;;;;;14.80;61.40;;;;;;5036889;28;83606;-37
2023/05/07 01:40:50;;;;;;;;;;;14.80;61.40;;;;;;5033604;28;81978;-37
2023/05/07 01:43:15;;;;;;;;;;;14.80;61.50;;;;;;5038428;28;83981;-39
2023/05/07 01:45:41;;;;;;;;;;;14.80;61.40;;;;;;5034379;28;82967;-39
2023/05/07 01:48:08;;;;;;;;;;;14.70;61.40;;;;;;5034745;28;83141;-37
2023/05/07 01:50:34;;;;;;;;;;;14.70;61.40;;;;;;5035960;28;83294;-39
2023/05/07 01:53:00;;;;;;;;;;;14.70;61.40;;;;;;5033512;28;82058;-39
2023/05/07 01:55:26;;;;;;;;;;;14.70;61.20;;;;;;5030197;28;82978;-36
2023/05/07 01:57:51;;;;;;;;;;;14.70;61.30;;;;;;5035565;28;83009;-39
2023/05/07 02:00:18;;;;;;;;;;;14.70;61.30;;;;;;5034686;28;81988;-38
2023/05/07 02:02:44;;;;;;;;;;;14.70;61.40;;;;;;5034867;27;83802;-36
2023/05/07 02:05:10;;;;;;;;;;;14.70;61.40;;;;;;5038310;28;84269;-38
2023/05/07 02:07:35;;;;;;;;;;;14.60;61.30;;;;;;5033348;28;82366;-39
2023/05/07 02:10:01;;;;;;;;;;;14.60;61.40;;;;;;5035723;28;84610;-38
2023/05/07 02:12:26;;;;;;;;;;;14.60;61.30;;;;;;5033694;28;82389;-37
2023/05/07 02:14:52;;;;;;;;;;;14.60;61.30;;;;;;5034989;28;82351;-37
2023/05/07 02:17:18;;;;;;;;;;;14.60;61.30;;;;;;5034852;28;83000;-36
2023/05/07 02:19:43;;;;;;;;;;;14.60;61.20;;;;;;5033932;28;82094;-36
2023/05/07 02:22:09;;;;;;;;;;;14.60;61.20;;;;;;5036382;28;81998;-37
2023/05/07 02:24:35;;;;;;;;;;;14.60;61.40;;;;;;5032939;28;82823;-40
2023/05/07 02:27:01;;;;;;;;;;;14.60;61.40;;;;;;5038985;28;81428;-37
2023/05/07 02:29:26;;;;;;;;;;;14.50;61.20;;;;;;5034949;27;84315;-38
2023/05/07 02:31:52;;;;;;;;;;;14.60;61.40;;;;;;5037729;28;81994;-38
2023/05/07 02:34:18;;;;;;;;;;;14.50;61.20;;;;;;5038126;28;83944;-40
2023/05/07 02:36:44;;;;;;;;;;;14.50;61.30;;;;;;5036453;28;83194;-39
2023/05/07 02:39:09;;;;;;;;;;;14.50;61.30;;;;;;5039557;28;82180;-39
2023/05/07 02:41:35;;;;;;;;;;;14.50;61.30;;;;;;5036815;28;82458;-36
2023/05/07 02:44:00;;;;;;;;;;;14.50;61.30;;;;;;5038280;28;82148;-38
2023/05/07 02:46:26;;;;;;;;;;;14.50;61.20;;;;;;5040614;28;82189;-39
2023/05/07 02:48:51;;;;;;;;;;;14.40;61.20;;;;;;5036608;28;83940;-37
2023/05/07 02:51:21;;;;;;;;;;;14.50;61.30;;;;;;5039340;28;81529;-38
2023/05/07 02:53:46;;;;;;;;;;;14.40;61.20;;;;;;5032132;28;82331;-36
2023/05/07 02:56:12;;;;;;;;;;;14.40;61.10;;;;;;5038453;28;82143;-38
2023/05/07 02:58:39;;;;;;;;;;;14.40;61.20;;;;;;5036519;28;82899;-36
2023/05/07 03:01:05;;;;;;;;;;;14.40;61.30;;;;;;5037448;27;82511;-38
2023/05/07 03:03:30;;;;;;;;;;;14.40;61.20;;;;;;5038328;28;82999;-37
2023/05/07 03:05:56;;;;;;;;;;;14.40;61.20;;;;;;5035985;28;81846;-40
2023/05/07 03:08:21;;;;;;;;;;;14.30;61.20;;;;;;5041604;28;81942;-38
2023/05/07 03:10:47;;;;;;;;;;;14.30;61.20;;;;;;5036647;28;82040;-38
2023/05/07 03:13:12;;;;;;;;;;;14.30;61.30;;;;;;5037467;27;82381;-37
2023/05/07 03:15:38;;;;;;;;;;;14.30;61.10;;;;;;5037978;28;82224;-37
2023/05/07 03:18:03;;;;;;;;;;;14.30;61.20;;;;;;5036684;28;82071;-40
2023/05/07 03:20:29;;;;;;;;;;;14.30;61.20;;;;;;5038931;28;82158;-40
2023/05/07 03:22:55;;;;;;;;;;;14.30;61.20;;;;;;5034478;28;85538;-38
2023/05/07 03:25:20;;;;;;;;;;;14.30;61.20;;;;;;5038441;28;82138;-38
2023/05/07 03:27:46;;;;;;;;;;;14.20;61.30;;;;;;5036318;28;82489;-40
2023/05/07 03:30:12;;;;;;;;;;;14.20;61.30;;;;;;5039638;28;83040;-37
2023/05/07 03:32:37;;;;;;;;;;;14.20;61.30;;;;;;5037547;28;83646;-36
2023/05/07 03:35:03;;;;;;;;;;;14.20;61.20;;;;;;5034378;28;86081;-37
2023/05/07 03:37:28;;;;;;;;;;;14.20;61.30;;;;;;5038681;28;82031;-38
2023/05/07 03:39:54;;;;;;;;;;;14.20;61.20;;;;;;5036045;27;82835;-39
2023/05/07 03:42:19;;;;;;;;;;;14.20;61.20;;;;;;5037387;28;84327;-39
2023/05/07 03:44:45;;;;;;;;;;;14.10;61.10;;;;;;5036443;28;82142;-38
2023/05/07 03:47:10;;;;;;;;;;;14.10;61.20;;;;;;5035950;28;83088;-36
2023/05/07 03:49:36;;;;;;;;;;;14.10;61.20;;;;;;5037833;28;82318;-38
2023/05/07 03:52:02;;;;;;;;;;;14.10;61.30;;;;;;5037633;28;82157;-38
2023/05/07 03:54:27;;;;;;;;;;;14.10;61.20;;;;;;5030891;28;84351;-36
2023/05/07 03:56:53;;;;;;;;;;;14.10;61.20;;;;;;5037868;28;82068;-37
2023/05/07 03:59:18;;;;;;;;;;;14.10;61.20;;;;;;5036210;28;82411;-37
2023/05/07 04:01:44;;;;;;;;;;;14.10;61.20;;;;;;5036322;28;83164;-39
2023/05/07 04:04:10;;;;;;;;;;;14.00;61.20;;;;;;5037190;28;80893;-39
2023/05/07 04:06:35;;;;;;;;;;;14.00;61.20;;;;;;5035291;28;81984;-38
2023/05/07 04:09:01;;;;;;;;;;;14.00;61.20;;;;;;5038113;28;82867;-37
2023/05/07 04:11:26;;;;;;;;;;;14.00;61.20;;;;;;5034609;28;83013;-37
2023/05/07 04:13:52;;;;;;;;;;;14.00;61.20;;;;;;5039553;28;83156;-38
2023/05/07 04:16:17;;;;;;;;;;;14.00;61.90;;;;;;5036520;28;81968;-37
2023/05/07 04:18:43;;;;;;;;;;;13.90;61.10;;;;;;5035879;28;82529;-40
2023/05/07 04:21:15;;;;;;;;;;;14.00;61.30;;;;;;5037262;28;82136;-38
2023/05/07 04:23:41;;;;;;;;;;;13.90;61.20;;;;;;5031446;28;82071;-38
2023/05/07 04:26:06;;;;;;;;;;;13.90;61.30;;;;;;5037019;27;82361;-38
2023/05/07 04:28:32;;;;;;;;;;;13.90;61.30;;;;;;5036030;28;83676;-38
2023/05/07 04:30:57;;;;;;;;;;;14.00;61.30;;;;;;5035877;28;82205;-39
2023/05/07 04:33:23;;;;;;;;;;;13.90;61.10;;;;;;5039879;28;82361;-39
2023/05/07 04:35:48;;;;;;;;;;;13.90;61.30;;;;;;5033853;28;82771;-37
2023/05/07 04:38:14;;;;;;;;;;;13.90;61.30;;;;;;5037667;28;83398;-36
2023/05/07 04:40:41;;;;;;;;;;;13.90;61.30;;;;;;5035276;28;82937;-37
2023/05/07 04:43:07;;;;;;;;;;;13.90;61.20;;;;;;5035863;28;81998;-39
2023/05/07 04:45:32;;;;;;;;;;;13.80;61.30;;;;;;5036224;28;84282;-38
2023/05/07 04:47:58;;;;;;;;;;;13.90;61.30;;;;;;5034203;28;84207;-40
2023/05/07 04:50:24;;;;;;;;;;;13.90;61.30;;;;;;5037612;28;82012;-37
2023/05/07 04:52:49;;;;;;;;;;;13.80;61.30;;;;;;5033966;28;84025;-39
2023/05/07 04:55:15;;;;;;;;;;;13.80;61.30;;;;;;5038760;28;84279;-37
2023/05/07 04:57:41;;;;;;;;;;;13.80;61.30;;;;;;5035518;28;81841;-39
2023/05/07 05:00:08;;;;;;;;;;;13.90;61.30;;;;;;5034384;28;83929;-37
2023/05/07 05:02:34;;;;;;;;;;;13.80;61.40;;;;;;5036891;28;81943;-36
2023/05/07 05:05:01;;;;;;;;;;;13.80;61.40;;;;;;5033466;27;82948;-38
2023/05/07 05:07:26;;;;;;;;;;;13.80;61.50;;;;;;5036427;28;84224;-38
2023/05/07 05:09:52;;;;;;;;;;;13.80;61.50;;;;;;5035144;28;82077;-38
2023/05/07 05:12:17;;;;;;;;;;;13.80;61.60;;;;;;5035700;28;82695;-38
2023/05/07 05:14:43;;;;;;;;;;;13.80;61.50;;;;;;5035858;28;83343;-38
2023/05/07 05:17:08;;;;;;;;;;;13.80;61.50;;;;;;5037744;28;81392;-39
2023/05/07 05:19:34;;;;;;;;;;;13.80;61.50;;;;;;5037229;28;83158;-38
2023/05/07 05:22:00;;;;;;;;;;;13.80;61.50;;;;;;5033928;28;82498;-37
2023/05/07 05:24:26;;;;;;;;;;;13.80;61.60;;;;;;5035773;27;83023;-39
2023/05/07 05:26:54;;;;;;;;;;;13.80;61.60;;;;;;5035019;28;82967;-38
2023/05/07 05:29:20;;;;;;;;;;;13.80;61.60;;;;;;5034329;28;82106;-39
2023/05/07 05:31:45;;;;;;;;;;;13.80;61.70;;;;;;5036878;28;82323;-37
2023/05/07 05:34:11;;;;;;;;;;;13.80;61.70;;;;;;5033660;28;82966;-39
2023/05/07 05:36:36;;;;;;;;;;;13.80;61.70;;;;;;5036665;28;82047;-36
2023/05/07 05:39:02;;;;;;;;;;;13.80;61.80;;;;;;5037359;28;82601;-39
2023/05/07 05:41:27;;;;;;;;;;;13.80;61.70;;;;;;5036012;28;81936;-39
2023/05/07 05:43:53;;;;;;;;;;;13.80;61.80;;;;;;5035491;28;82386;-37
2023/05/07 05:46:19;;;;;;;;;;;13.80;61.80;;;;;;5033880;28;83221;-37
2023/05/07 05:48:44;;;;;;;;;;;13.80;62.00;;;;;;5036278;28;82983;-37
2023/05/07 05:51:10;;;;;;;;;;;13.80;62.10;;;;;;5033819;28;82288;-38
2023/05/07 05:53:35;;;;;;;;;;;13.80;62.10;;;;;;5035833;28;82719;-38
2023/05/07 05:56:01;;;;;;;;;;;13.80;62.00;;;;;;5034553;28;82125;-39
2023/05/07 05:58:26;;;;;;;;;;;13.80;62.00;;;;;;5034779;28;82805;-38
2023/05/07 06:00:53;;;;;;;;;;;13.80;62.10;;;;;;5038368;28;84303;-38
2023/05/07 06:03:18;;;;;;;;;;;13.80;62.20;;;;;;5033283;28;83863;-37
2023/05/07 06:05:44;;;;;;;;;;;13.80;62.20;;;;;;5036918;28;82725;-38
2023/05/07 06:08:09;;;;;;;;;;;13.80;62.20;;;;;;5036575;28;82046;-37
2023/05/07 06:10:36;;;;;;;;;;;13.80;62.30;;;;;;5038557;28;83876;-38
2023/05/07 06:13:01;;;;;;;;;;;13.80;62.30;;;;;;5037417;28;85427;-39
2023/05/07 06:15:27;;;;;;;;;;;13.80;62.30;;;;;;5037086;28;82059;-37
2023/05/07 06:17:52;;;;;;;;;;;13.80;62.30;;;;;;5039432;28;83095;-38
2023/05/07 06:20:18;;;;;;;;;;;13.90;62.30;;;;;;5035985;28;84223;-36
2023/05/07 06:22:43;;;;;;;;;;;13.80;62.40;;;;;;5041901;28;82109;-39
2023/05/07 06:25:09;;;;;;;;;;;13.80;62.50;;;;;;5037181;28;84700;-39
2023/05/07 06:27:34;;;;;;;;;;;13.80;62.50;;;;;;5037342;28;82063;-40
2023/05/07 06:30:00;;;;;;;;;;;13.80;62.40;;;;;;5035910;28;83647;-37
2023/05/07 06:32:26;;;;;;;;;;;13.90;62.50;;;;;;5039148;28;84538;-37
2023/05/07 06:34:51;;;;;;;;;;;13.80;62.40;;;;;;5036532;28;82063;-38
2023/05/07 06:37:17;;;;;;;;;;;13.80;62.50;;;;;;5037956;28;83276;-37
2023/05/07 06:39:42;;;;;;;;;;;13.80;62.50;;;;;;5033103;28;83294;-39
2023/05/07 06:42:08;;;;;;;;;;;13.80;62.70;;;;;;5041004;28;81990;-39
2023/05/07 06:44:33;;;;;;;;;;;13.80;62.80;;;;;;5037617;28;82248;-37
2023/05/07 06:46:59;;;;;;;;;;;13.80;62.90;;;;;;5039400;28;82153;-39
2023/05/07 06:49:24;;;;;;;;;;;13.80;62.90;;;;;;5036349;27;82818;-38
2023/05/07 06:51:50;;;;;;;;;;;13.80;62.90;;;;;;5039756;28;81883;-38
2023/05/07 06:54:15;;;;;;;;;;;13.80;62.80;;;;;;5036379;28;81649;-40
2023/05/07 06:56:41;;;;;;;;;;;13.80;62.90;;;;;;5038421;27;82173;-38
2023/05/07 06:59:07;;;;;;;;;;;13.80;63.00;;;;;;5037207;28;83533;-39
2023/05/07 07:01:33;;;;;;;;;;;13.80;62.90;;;;;;5036345;28;82874;-37
2023/05/07 07:03:58;;;;;;;;;;;13.80;63.00;;;;;;5040581;28;82516;-39
2023/05/07 07:06:24;;;;;;;;;;;13.90;62.90;;;;;;5035348;28;81958;-38
2023/05/07 07:08:49;;;;;;;;;;;13.80;63.00;;;;;;5038727;28;83954;-37
2023/05/07 07:11:15;;;;;;;;;;;13.90;62.90;;;;;;5035046;28;83955;-36
2023/05/07 07:13:41;;;;;;;;;;;13.90;63.10;;;;;;5036184;28;82548;-39
2023/05/07 07:16:06;;;;;;;;;;;13.90;65.40;;;;;;5034572;27;82996;-39
2023/05/07 07:18:32;;;;;;;;;;;13.90;66.90;;;;;;5033991;28;82369;-39
2023/05/07 07:20:57;;;;;;;;;;;13.90;66.50;;;;;;5036472;28;82784;-42
2023/05/07 07:23:23;;;;;;;;;;;13.90;66.20;;;;;;5034554;28;82607;-38
2023/05/07 07:25:48;;;;;;;;;;;14.00;66.20;;;;;;5038627;28;83867;-38
2023/05/07 07:28:14;;;;;;;;;;;14.00;65.40;;;;;;5034125;28;83356;-40
2023/05/07 07:30:39;;;;;;;;;;;14.10;65.20;;;;;;5036421;28;82956;-38
2023/05/07 07:33:05;;;;;;;;;;;14.10;64.70;;;;;;5034664;28;82532;-39
2023/05/07 07:35:31;;;;;;;;;;;14.10;64.60;;;;;;5036352;28;82597;-39
2023/05/07 07:37:57;;;;;;;;;;;14.20;64.20;;;;;;5034458;28;84121;-39
2023/05/07 07:40:22;;;;;;;;;;;14.20;64.40;;;;;;5037569;28;81951;-39
2023/05/07 07:42:48;;;;;;;;;;;14.20;64.50;;;;;;5035398;27;83949;-38
2023/05/07 07:45:13;;;;;;;;;;;14.20;64.40;;;;;;5038120;28;81837;-38
2023/05/07 07:47:39;;;;;;;;;;;14.20;64.30;;;;;;5038042;28;82970;-38
2023/05/07 07:50:05;;;;;;;;;;;14.10;64.20;;;;;;5036942;28;85353;-39
2023/05/07 07:52:31;;;;;;;;;;;14.10;64.10;;;;;;5034891;28;82272;-39
2023/05/07 07:54:56;;;;;;;;;;;14.10;63.90;;;;;;5038466;28;82499;-39
2023/05/07 07:57:22;;;;;;;;;;;14.10;64.10;;;;;;5035155;28;82974;-40
2023/05/07 07:59:47;;;;;;;;;;;14.10;64.10;;;;;;5038160;28;82016;-38
2023/05/07 08:02:13;;;;;;;;;;;14.10;64.10;;;;;;5035198;28;82554;-42
2023/05/07 08:04:38;;;;;;;;;;;14.20;64.20;;;;;;5037453;28;83149;-37
2023/05/07 08:07:04;;;;;;;;;;;14.20;64.70;;;;;;5035516;28;81148;-39
2023/05/07 08:09:29;;;;;;;;;;;14.30;66.40;;;;;;5040398;28;83090;-42
2023/05/07 08:11:55;;;;;;;;;;;14.40;66.70;;;;;;5034687;28;81792;-38
2023/05/07 08:14:20;;;;;;;;;;;14.40;65.60;;;;;;5037696;28;83337;-37
2023/05/07 08:16:46;;;;;;;;;;;14.40;65.30;;;;;;5034618;28;82730;-39
2023/05/07 08:19:11;;;;;;;;;;;14.40;65.10;;;;;;5038139;28;82008;-39
2023/05/07 08:21:40;;;;;;;;;;;14.50;65.10;;;;;;5034750;28;82628;-38
2023/05/07 08:24:06;;;;;;;;;;;14.40;64.60;;;;;;5030775;28;82997;-39
2023/05/07 08:26:31;;;;;;;;;;;14.40;64.40;;;;;;5037105;28;82023;-38
2023/05/07 08:28:57;;;;;;;;;;;14.50;64.30;;;;;;5034091;28;82051;-38
2023/05/07 08:31:22;;;;;;;;;;;14.50;64.00;;;;;;5039561;28;81577;-38
2023/05/07 08:33:48;;;;;;;;;;;14.50;64.90;;;;;;5032814;28;81882;-39
2023/05/07 08:36:13;;;;;;;;;;;14.70;67.80;;;;;;5035875;28;82976;-38
2023/05/07 08:38:40;;;;;;;;;;;14.60;67.10;;;;;;5032266;28;83082;-40
2023/05/07 08:41:07;;;;;;;;;;;14.60;67.00;;;;;;5036068;28;83236;-37
2023/05/07 08:43:33;;;;;;;;;;;14.60;66.60;;;;;;5032620;28;84565;-41
2023/05/07 08:46:01;;;;;;;;;;;14.70;66.30;;;;;;5035991;28;82083;-39
2023/05/07 08:48:27;;;;;;;;;;;14.90;67.80;;;;;;5034099;28;82428;-39
2023/05/07 08:50:53;;;;;;;;;;;14.90;65.10;;;;;;5038051;28;82983;-40
2023/05/07 08:53:20;;;;;;;;;;;14.90;65.20;;;;;;5033955;28;82396;-37
2023/05/07 08:55:45;;;;;;;;;;;14.90;65.10;;;;;;5035590;28;83795;-40
2023/05/07 08:58:11;;;;;;;;;;;14.90;65.00;;;;;;5034417;28;82355;-39
2023/05/07 09:00:37;;;;;;;;;;;15.00;67.40;;;;;;5035558;28;83726;-41
2023/05/07 09:03:02;;;;;;;;;;;15.20;67.30;;;;;;5034387;28;84421;-37
2023/05/07 09:05:28;;;;;;;;;;;15.30;65.60;;;;;;5035184;28;82119;-37
2023/05/07 09:07:55;;;;;;;;;;;15.20;65.80;;;;;;5035164;28;83789;-37
2023/05/07 09:10:21;;;;;;;;;;;15.20;65.80;;;;;;5035242;28;82983;-37
2023/05/07 09:12:47;;;;;;;;;;;15.20;65.50;;;;;;5038492;28;82282;-37
2023/05/07 09:15:12;;;;;;;;;;;15.20;65.00;;;;;;5034838;28;83096;-38
2023/05/07 09:17:38;;;;;;;;;;;15.20;64.90;;;;;;5035698;28;81815;-38
2023/05/07 09:20:04;;;;;;;;;;;15.10;65.80;;;;;;5035421;27;83903;-39
2023/05/07 09:22:33;;;;;;;;;;;15.20;67.70;;;;;;5035623;28;83159;-37
2023/05/07 09:24:59;;;;;;;;;;;15.20;66.80;;;;;;5034538;28;82815;-37
2023/05/07 09:27:25;;;;;;;;;;;15.20;64.60;;;;;;5035243;28;83858;-37
2023/05/07 09:29:51;;;;;;;;;;;15.10;65.00;;;;;;5034153;28;83302;-36
2023/05/07 09:32:16;;;;;;;;;;;15.20;64.80;;;;;;5036303;28;82366;-38
2023/05/07 09:34:42;;;;;;;;;;;15.30;64.90;;;;;;5036646;27;82845;-38
2023/05/07 09:37:08;;;;;;;;;;;15.30;64.70;;;;;;5036502;28;82112;-36
2023/05/07 09:39:40;;;;;;;;;;;15.30;64.50;;;;;;5037341;28;82510;-37
2023/05/07 09:42:06;;;;;;;;;;;15.30;64.40;;;;;;5028994;28;89392;-38
2023/05/07 09:44:32;;;;;;;;;;;15.30;64.40;;;;;;5037331;28;86488;-37
2023/05/07 09:46:59;;;;;;;;;;;15.30;64.50;;;;;;5033866;28;87039;-37
2023/05/07 09:49:27;;;;;;;;;;;15.30;64.50;;;;;;5036072;28;88062;-37
2023/05/07 09:51:53;;;;;;;;;;;15.30;64.60;;;;;;5033189;28;88343;-38
2023/05/07 09:54:19;;;;;;;;;;;15.30;64.70;;;;;;5035001;27;89988;-38
2023/05/07 09:56:44;;;;;;;;;;;15.30;64.80;;;;;;5035765;28;89304;-36
2023/05/07 09:59:12;;;;;;;;;;;15.30;65.00;;;;;;5035120;27;87917;-36
2023/05/07 10:01:38;;;;;;;;;;;15.30;64.70;;;;;;5032937;28;88035;-37
2023/05/07 10:04:04;;;;;;;;;;;15.40;64.20;;;;;;5033234;28;87146;-37
2023/05/07 10:06:30;;;;;;;;;;;15.30;63.50;;;;;;5033118;28;87529;-36
2023/05/07 10:08:56;;;;;;;;;;;15.40;63.20;;;;;;5033997;28;87208;-38
2023/05/07 10:11:22;;;;;;;;;;;15.50;64.40;;;;;;5033172;28;86997;-37
2023/05/07 10:13:47;;;;;;;;;;;15.60;62.60;;;;;;5034291;28;87473;-37
2023/05/07 10:16:13;;;;;;;;;;;15.60;61.70;;;;;;5033896;28;89486;-40
2023/05/07 10:18:40;;;;;;;;;;;15.90;64.30;;;;;;5037436;28;87058;-38
2023/05/07 10:21:15;;;;;;;;;;;16.00;62.20;;;;;;5033752;28;88031;-37
2023/05/07 10:23:44;;;;;;;;;;;16.10;62.10;;;;;;5032408;28;87785;-41
2023/05/07 10:26:10;;;;;;;;;;;16.20;58.10;;;;;;5028138;28;87471;-38
2023/05/07 10:28:39;;;;;;;;;;;16.10;58.90;;;;;;5027322;28;87896;-38
2023/05/07 10:31:24;;;;;;;;;;;16.20;57.70;;;;;;5034451;28;87091;-40
2023/05/07 10:33:51;;;;;;;;;;;16.20;57.60;;;;;;5035105;28;88852;-39
2023/05/07 10:36:16;;;;;;;;;;;16.20;57.50;;;;;;5031683;28;88001;-39
2023/05/07 10:38:42;;;;;;;;;;;16.20;57.80;;;;;;5035100;28;87423;-39
2023/05/07 10:41:08;;;;;;;;;;;16.30;57.50;;;;;;5033591;27;87939;-38
2023/05/07 10:43:41;;;;;;;;;;;16.30;56.90;;;;;;5035117;28;87078;-38
2023/05/07 10:46:10;;;;;;;;;;;16.20;56.20;;;;;;5028824;28;89278;-38
2023/05/07 10:48:56;;;;;;;;;;;16.20;55.20;;;;;;5033574;28;89102;-38
2023/05/07 10:51:22;;;;;;;;;;;16.30;56.10;;;;;;5026854;28;87642;-38
2023/05/07 10:53:47;;;;;;;;;;;16.30;55.40;;;;;;5027632;28;87011;-42
2023/05/07 10:56:19;;;;;;;;;;;16.50;57.50;;;;;;5035332;28;88074;-38
2023/05/07 10:58:44;;;;;;;;;;;16.60;56.60;;;;;;5033984;28;86359;-37
2023/05/07 11:01:12;;;;;;;;;;;16.60;55.90;;;;;;5037722;27;88052;-38
2023/05/07 11:03:57;;;;;;;;;;;16.60;55.10;;;;;;5032793;28;87271;-38
2023/05/07 11:06:23;;;;;;;;;;;16.60;55.30;;;;;;5027001;28;87978;-36
2023/05/07 11:08:51;;;;;;;;;;;16.50;54.10;;;;;;5035326;28;88082;-40
2023/05/07 11:11:17;;;;;;;;;;;16.50;55.90;;;;;;5032146;28;86991;-39
2023/05/07 11:13:42;;;;;;;;;;;16.60;56.80;;;;;;5035289;28;87366;-36
2023/05/07 11:16:18;;;;;;;;;;;16.60;55.40;;;;;;5031706;28;89158;-37
2023/05/07 11:18:48;;;;;;;;;;;16.50;56.70;;;;;;5032911;28;87625;-37
2023/05/07 11:21:31;;;;;;;;;;;16.40;57.50;;;;;;5033787;28;87904;-38
2023/05/07 11:23:57;;;;;;;;;;;16.50;58.20;;;;;;5032424;28;88496;-37
2023/05/07 11:26:23;;;;;;;;;;;16.60;56.50;;;;;;5033874;27;87203;-37
2023/05/07 11:28:48;;;;;;;;;;;16.60;56.30;;;;;;5031645;28;87096;-36
2023/05/07 11:31:19;;;;;;;;;;;16.70;56.80;;;;;;5033412;28;88160;-37
2023/05/07 11:33:45;;;;;;;;;;;16.70;57.10;;;;;;5033564;28;87583;-36
2023/05/07 11:36:11;;;;;;;;;;;16.70;57.10;;;;;;5033096;28;87162;-36
2023/05/07 11:38:37;;;;;;;;;;;16.70;57.20;;;;;;5034128;28;87198;-36
2023/05/07 11:41:04;;;;;;;;;;;16.70;58.20;;;;;;5033519;27;87414;-37
2023/05/07 11:43:30;;;;;;;;;;;16.70;57.80;;;;;;5033517;28;88119;-37
2023/05/07 11:46:04;;;;;;;;;;;16.70;57.90;;;;;;5034011;28;87406;-38
2023/05/07 11:48:30;;;;;;;;;;;16.70;58.20;;;;;;5034508;28;87107;-37
2023/05/07 11:50:58;;;;;;;;;;;16.70;58.30;;;;;;5031012;28;87189;-37
2023/05/07 11:53:27;;;;;;;;;;;16.70;58.10;;;;;;5027155;28;87412;-44
2023/05/07 11:55:53;;;;;;;;;;;16.80;57.50;;;;;;5033277;28;88885;-39
2023/05/07 11:58:22;;;;;;;;;;;17.00;56.10;;;;;;5031375;28;87037;-41
2023/05/07 12:00:49;;;;;;;;;;;17.10;55.30;;;;;;5033567;27;88199;-41
2023/05/07 12:03:14;;;;;;;;;;;17.10;54.00;;;;;;5031486;28;89645;-41
2023/05/07 12:05:41;;;;;;;;;;;17.20;53.90;;;;;;5032872;28;87497;-41
2023/05/07 12:08:07;;;;;;;;;;;17.40;56.30;;;;;;5034747;28;87720;-39
2023/05/07 12:10:32;;;;;;;;;;;17.50;56.20;;;;;;5033281;28;87111;-40
2023/05/07 12:12:58;;;;;;;;;;;17.60;56.00;;;;;;5033439;28;87585;-38
2023/05/07 12:15:23;;;;;;;;;;;17.60;54.10;;;;;;5034496;28;88131;-38
2023/05/07 12:17:50;;;;;;;;;;;17.60;54.70;;;;;;5031767;28;87210;-40
2023/05/07 12:20:16;;;;;;;;;;;17.70;54.80;;;;;;5031759;27;87848;-39
2023/05/07 12:22:42;;;;;;;;;;;17.70;55.30;;;;;;5033392;28;87775;-38
2023/05/07 12:25:08;;;;;;;;;;;17.80;55.10;;;;;;5031574;28;87093;-40
2023/05/07 12:27:36;;;;;;;;;;;17.80;54.20;;;;;;5030346;28;87350;-38
2023/05/07 12:30:01;;;;;;;;;;;17.90;54.40;;;;;;5034330;28;88032;-40
2023/05/07 12:32:28;;;;;;;;;;;18.00;54.80;;;;;;5032583;28;87770;-40
2023/05/07 12:34:53;;;;;;;;;;;18.00;54.80;;;;;;5029765;28;87978;-37
2023/05/07 12:37:25;;;;;;;;;;;18.10;54.20;;;;;;5031652;28;86631;-37
2023/05/07 12:40:07;;;;;;;;;;;17.90;55.30;;;;;;5025755;28;88490;-36
2023/05/07 12:42:35;;;;;;;;;;;17.90;55.80;;;;;;5026510;28;88551;-40
2023/05/07 12:45:07;;;;;;;;;;;17.90;56.40;;;;;;5031003;28;87974;-44
2023/05/07 12:47:33;;;;;;;;;;;17.80;57.00;;;;;;5027937;28;88984;-39
2023/05/07 12:49:59;;;;;;;;;;;17.90;57.20;;;;;;5031059;28;87057;-37
2023/05/07 12:52:25;;;;;;;;;;;17.90;57.50;;;;;;5035883;27;86941;-41
2023/05/07 12:54:50;;;;;;;;;;;18.00;57.80;;;;;;5032177;28;87586;-40
2023/05/07 12:57:18;;;;;;;;;;;18.00;58.20;;;;;;5030914;28;87317;-38
2023/05/07 12:59:44;;;;;;;;;;;18.00;59.20;;;;;;5032097;28;87097;-41
2023/05/07 13:02:09;;;;;;;;;;;18.00;58.60;;;;;;5033149;28;87284;-39
2023/05/07 13:04:36;;;;;;;;;;;18.10;58.70;;;;;;5030091;28;87264;-40
2023/05/07 13:07:01;;;;;;;;;;;18.10;58.70;;;;;;5031427;28;87359;-42
2023/05/07 13:09:28;;;;;;;;;;;18.10;59.20;;;;;;5031663;28;89123;-42
2023/05/07 13:11:54;;;;;;;;;;;18.20;59.30;;;;;;5034049;28;87093;-37
2023/05/07 13:14:20;;;;;;;;;;;18.10;59.40;;;;;;5029793;28;88133;-41
2023/05/07 13:16:49;;;;;;;;;;;18.20;59.70;;;;;;5027425;28;87148;-36
2023/05/07 13:19:14;;;;;;;;;;;18.10;59.90;;;;;;5031107;28;87291;-36
2023/05/07 13:21:40;;;;;;;;;;;18.10;59.30;;;;;;5032815;28;87744;-38
2023/05/07 13:24:05;;;;;;;;;;;18.10;59.20;;;;;;5031206;28;87538;-37
2023/05/07 13:26:31;;;;;;;;;;;18.10;59.40;;;;;;5030433;28;87468;-37
2023/05/07 13:28:57;;;;;;;;;;;18.10;59.40;;;;;;5031191;28;88093;-38
2023/05/07 13:31:22;;;;;;;;;;;18.10;59.40;;;;;;5031261;28;87186;-37
2023/05/07 13:33:48;;;;;;;;;;;18.00;59.40;;;;;;5031461;27;87967;-37
2023/05/07 13:36:14;;;;;;;;;;;18.00;59.40;;;;;;5031522;28;87542;-36
2023/05/07 13:38:40;;;;;;;;;;;18.00;59.40;;;;;;5032963;28;87381;-36
2023/05/07 13:41:05;;;;;;;;;;;18.00;59.50;;;;;;5029720;28;89410;-38
2023/05/07 13:43:33;;;;;;;;;;;18.00;59.40;;;;;;5030696;28;87093;-38
2023/05/07 13:45:59;;;;;;;;;;;18.00;59.50;;;;;;5032341;28;89172;-36
2023/05/07 13:48:24;;;;;;;;;;;18.10;59.60;;;;;;5031286;28;88007;-38
2023/05/07 13:50:50;;;;;;;;;;;18.00;59.50;;;;;;5030579;28;87195;-37
2023/05/07 13:53:17;;;;;;;;;;;18.10;59.60;;;;;;5031652;28;88244;-37
2023/05/07 13:55:43;;;;;;;;;;;18.10;59.80;;;;;;5033757;28;89718;-36
2023/05/07 13:58:09;;;;;;;;;;;18.10;59.80;;;;;;5028638;27;87996;-38
2023/05/07 14:00:35;;;;;;;;;;;18.10;59.80;;;;;;5029378;28;88233;-38
2023/05/07 14:03:00;;;;;;;;;;;18.10;59.90;;;;;;5031176;28;87253;-38
2023/05/07 14:05:27;;;;;;;;;;;18.10;59.70;;;;;;5029919;28;87462;-38
2023/05/07 14:07:53;;;;;;;;;;;18.10;59.40;;;;;;5029619;28;88279;-36
2023/05/07 14:10:19;;;;;;;;;;;18.10;59.50;;;;;;5026066;28;86885;-38